Time;durP1;ratioP1;P1;durP2;ratioP2;P2;SDS_P1;SDS_P2;PMS_P1;PMS_P2;Temp;Humidity;BMP_temperature;BMP_pressure;BME280_temperature;BME280_humidity;BME280_pressure;Samples;Min_cycle;Max_cycle;Signal;HPM_P1;HPM_P2
2023/02/16 00:01:43;;;;;;;;;57.25;42.25;;;;;8.44;100.00;102355.56;5034856;28;45467;-75
2023/02/16 00:04:21;;;;;;;;;49.75;39.50;;;;;8.40;100.00;102347.50;5044693;28;51487;-76
2023/02/16 00:06:47;;;;;;;;;50.25;39.25;;;;;8.39;100.00;102345.72;5053047;28;45493;-76
2023/02/16 00:09:12;;;;;;;;;56.25;41.75;;;;;8.37;100.00;102341.25;5047371;28;45484;-74
2023/02/16 00:14:24;;;;;;;;;53.25;38.25;;;;;8.33;100.00;102347.16;5031352;28;45448;-76
2023/02/16 00:16:51;;;;;;;;;45.25;35.25;;;;;8.33;100.00;102353.31;5031989;28;45378;-75
2023/02/16 00:19:34;;;;;;;;;45.25;37.00;;;;;8.28;100.00;102339.06;5047781;28;45579;-74
2023/02/16 00:22:00;;;;;;;;;41.00;35.75;;;;;8.27;100.00;102339.00;5025735;28;45579;-74
2023/02/16 00:24:27;;;;;;;;;40.00;34.25;;;;;8.25;100.00;102341.53;5027180;28;45532;-74
2023/02/16 00:26:53;;;;;;;;;40.25;33.25;;;;;8.25;100.00;102345.91;5043405;28;45181;-75
2023/02/16 00:29:24;;;;;;;;;45.50;36.25;;;;;8.22;100.00;102348.41;5034250;28;45448;-75
2023/02/16 00:31:50;;;;;;;;;42.50;36.75;;;;;8.23;100.00;102339.69;5056320;28;45400;-75
2023/02/16 00:34:27;;;;;;;;;43.50;36.25;;;;;8.20;100.00;102342.16;5041076;28;46556;-74
2023/02/16 00:36:54;;;;;;;;;47.75;37.75;;;;;8.17;100.00;102335.03;5049959;28;45434;-74
2023/02/16 00:39:19;;;;;;;;;55.25;38.50;;;;;8.19;100.00;102345.63;5044440;28;45441;-75
2023/02/16 00:41:52;;;;;;;;;39.25;34.75;;;;;8.17;100.00;102337.69;5038526;28;45242;-75
2023/02/16 00:44:30;;;;;;;;;44.50;35.75;;;;;8.17;100.00;102335.03;5046945;28;45954;-77
2023/02/16 00:46:56;;;;;;;;;41.75;38.00;;;;;8.15;100.00;102320.94;5045512;28;46948;-74
2023/02/16 00:49:21;;;;;;;;;48.00;37.75;;;;;8.14;100.00;102329.63;5055694;28;45578;-75
2023/02/16 00:51:48;;;;;;;;;42.25;35.00;;;;;8.13;100.00;102317.31;5051788;28;45385;-74
2023/02/16 00:54:14;;;;;;;;;43.50;36.50;;;;;8.13;100.00;102326.09;5042239;28;46227;-77
2023/02/16 00:56:40;;;;;;;;;46.00;38.00;;;;;8.12;100.00;102318.16;5027246;28;45249;-74
2023/02/16 00:59:10;;;;;;;;;40.50;34.50;;;;;8.12;100.00;102313.78;5047460;28;45299;-74
2023/02/16 01:01:35;;;;;;;;;40.50;32.50;;;;;8.10;100.00;102318.09;5054447;28;45698;-76
2023/02/16 01:04:04;;;;;;;;;33.75;29.75;;;;;8.09;100.00;102311.00;5047496;28;45993;-76
2023/02/16 01:12:04;;;;;;;;;37.75;30.25;;;;;8.16;100.00;102317.47;5031840;28;45524;-76
2023/02/16 01:14:31;;;;;;;;;36.75;28.50;;;;;8.18;100.00;102323.69;5011138;28;47955;-73
2023/02/16 01:16:57;;;;;;;;;38.25;34.00;;;;;8.20;100.00;102319.38;5052705;28;45498;-75
2023/02/16 01:19:22;;;;;;;;;36.25;30.75;;;;;8.25;100.00;102317.84;5030650;28;45479;-74
2023/02/16 01:21:48;;;;;;;;;34.75;28.00;;;;;8.28;100.00;102307.47;5043943;28;45578;-74
2023/02/16 01:24:13;;;;;;;;;32.00;25.25;;;;;8.31;100.00;102311.97;5049402;28;63288;-75
2023/02/16 01:26:41;;;;;;;;;40.00;31.75;;;;;8.31;100.00;102311.97;5033946;28;45495;-73
2023/02/16 01:29:17;;;;;;;;;27.50;25.00;;;;;8.35;100.00;102312.16;5031915;28;45580;-75
2023/02/16 01:31:43;;;;;;;;;33.25;24.25;;;;;8.36;100.00;102300.88;5018121;28;45604;-74
2023/02/16 01:34:08;;;;;;;;;34.50;26.00;;;;;8.39;100.00;102297.44;5031355;28;46529;-74
2023/02/16 01:36:52;;;;;;;;;28.75;22.50;;;;;8.39;100.00;102289.56;5027510;28;45433;-74
2023/02/16 01:39:19;;;;;;;;;35.50;29.50;;;;;8.39;100.00;102300.09;5034893;28;56806;-75
2023/02/16 01:41:53;;;;;;;;;26.00;23.25;;;;;8.40;100.00;102300.13;5022602;28;45550;-73
2023/02/16 01:44:26;;;;;;;;;34.75;28.00;;;;;8.41;100.00;102285.25;5034215;28;48100;-75
2023/02/16 01:47:04;;;;;;;;;39.75;30.75;;;;;8.42;100.00;102286.16;5031049;28;45493;-75
2023/02/16 01:49:30;;;;;;;;;42.75;30.00;;;;;8.37;100.00;102267.53;5029333;28;45472;-74
2023/02/16 01:52:27;;;;;;;;;34.25;28.50;;;;;8.42;100.00;102283.53;5033196;28;54873;-74
2023/02/16 01:55:14;;;;;;;;;37.25;28.50;;;;;8.36;100.00;102277.19;5033100;28;46531;-77
2023/02/16 01:57:49;;;;;;;;;33.75;28.00;;;;;8.36;100.00;102285.06;5048972;28;45273;-74
2023/02/16 02:00:15;;;;;;;;;28.25;23.50;;;;;8.36;100.00;102281.50;5044873;28;45522;-77
2023/02/16 02:02:44;;;;;;;;;31.25;26.25;;;;;8.34;100.00;102273.53;5049664;28;45471;-74
2023/02/16 02:05:35;;;;;;;;;27.75;22.25;;;;;8.34;100.00;102281.41;5038045;28;46553;-75
2023/02/16 02:08:17;;;;;;;;;39.25;29.00;;;;;8.33;100.00;102273.47;5046963;28;45407;-75
2023/02/16 02:11:04;;;;;;;;;31.75;27.00;;;;;8.28;100.00;102260.09;5032482;28;45433;-75
2023/02/16 02:13:55;;;;;;;;;29.25;22.00;;;;;8.26;100.00;102261.78;5048803;28;45435;-75
2023/02/16 02:16:23;;;;;;;;;38.00;25.50;;;;;8.23;100.00;102256.38;5029759;28;46428;-74
2023/02/16 02:18:49;;;;;;;;;31.50;27.25;;;;;8.22;100.00;102251.06;5034969;28;45400;-76
2023/02/16 02:24:33;;;;;;;;;30.25;24.50;;;;;8.19;100.00;102245.66;5039029;28;45417;-75
2023/02/16 02:26:58;;;;;;;;;25.75;20.25;;;;;8.16;100.00;102246.44;5047325;28;46040;-75
2023/02/16 02:29:39;;;;;;;;;28.75;25.00;;;;;8.16;100.00;102241.16;5053572;28;45541;-74
2023/02/16 02:32:10;;;;;;;;;28.75;24.00;;;;;8.15;100.00;102255.16;5053907;28;45492;-75
2023/02/16 02:34:46;;;;;;;;;19.75;15.50;;;;;8.13;100.00;102248.91;5045767;28;45287;-74
2023/02/16 02:37:20;;;;;;;;;28.50;22.25;;;;;8.10;100.00;102254.06;5031686;28;45749;-74
2023/02/16 02:39:56;;;;;;;;;25.25;21.50;;;;;8.11;100.00;102258.47;5042181;28;45568;-74
2023/02/16 02:42:28;;;;;;;;;25.00;22.25;;;;;8.07;100.00;102253.91;5005863;28;45386;-74
2023/02/16 02:45:02;;;;;;;;;29.50;24.50;;;;;8.04;100.00;102257.31;5048326;28;45338;-75
2023/02/16 02:47:41;;;;;;;;;21.50;20.25;;;;;8.01;100.00;102251.00;5035005;28;46618;-74
2023/02/16 02:50:38;;;;;;;;;26.75;20.50;;;;;7.97;100.00;102251.72;5045973;28;45483;-76
2023/02/16 02:53:07;;;;;;;;;23.00;19.75;;;;;7.93;100.00;102257.66;5051594;28;45467;-74
2023/02/16 03:01:06;;;;;;;;;20.50;19.75;;;;;7.92;100.00;102242.72;5046816;28;45294;-75
2023/02/16 03:03:38;;;;;;;;;28.25;23.25;;;;;7.91;100.00;102235.66;5032858;28;45333;-74
2023/02/16 03:06:10;;;;;;;;;31.25;23.25;;;;;7.93;100.00;102234.88;5017771;28;45585;-75
2023/02/16 03:08:39;;;;;;;;;19.50;15.75;;;;;7.95;100.00;102230.59;5055551;28;45409;-75
2023/02/16 03:13:54;;;;;;;;;24.50;23.00;;;;;7.96;100.00;102220.97;5051522;28;45484;-74
2023/02/16 03:16:26;;;;;;;;;26.00;22.00;;;;;8.01;100.00;102244.03;5022548;28;45429;-74
2023/02/16 03:30:24;;;;;;;;;34.75;24.50;;;;;8.02;100.00;102229.13;5040293;28;45340;-74
2023/02/16 03:32:50;;;;;;;;;33.25;26.00;;;;;7.95;100.00;102212.19;5055863;28;45248;-75
2023/02/16 03:35:15;;;;;;;;;24.75;19.75;;;;;8.00;100.00;102228.19;5021661;28;55933;-75
2023/02/16 03:37:42;;;;;;;;;20.25;17.25;;;;;7.97;100.00;102228.03;5038950;28;47102;-74
2023/02/16 03:40:28;;;;;;;;;28.75;21.00;;;;;8.00;100.00;102226.44;5039578;28;46403;-74
2023/02/16 03:43:05;;;;;;;;;28.00;20.75;;;;;7.95;100.00;102222.72;5052299;28;45638;-76
2023/02/16 03:45:33;;;;;;;;;29.50;24.25;;;;;7.95;100.00;102237.59;5032391;28;45501;-74
2023/02/16 03:47:59;;;;;;;;;31.00;26.75;;;;;7.96;100.00;102249.91;5042199;28;45432;-74
2023/02/16 03:50:25;;;;;;;;;15.00;12.25;;;;;7.95;100.00;102241.13;5052759;28;46430;-76
2023/02/16 03:52:51;;;;;;;;;29.00;20.25;;;;;7.93;100.00;102234.88;5025211;28;45481;-74
2023/02/16 03:55:16;;;;;;;;;29.50;21.00;;;;;7.93;100.00;102239.25;5045135;28;45376;-74
2023/02/16 03:57:42;;;;;;;;;21.00;21.00;;;;;7.93;100.00;102239.25;5039751;28;45543;-76
2023/02/16 04:00:07;;;;;;;;;35.00;23.25;;;;;7.91;100.00;102240.91;5035742;28;47591;-77
2023/02/16 04:02:33;;;;;;;;;31.50;23.50;;;;;7.90;100.00;102244.38;5030394;28;45431;-76
2023/02/16 04:04:58;;;;;;;;;27.25;23.25;;;;;7.85;100.00;102233.66;5042639;28;57084;-77
2023/02/16 04:07:24;;;;;;;;;30.50;24.00;;;;;7.83;100.00;102233.59;5057055;28;45527;-74
2023/02/16 04:09:49;;;;;;;;;27.00;24.50;;;;;7.84;100.00;102240.66;5051785;28;45699;-76
2023/02/16 04:14:58;;;;;;;;;25.75;20.50;;;;;7.82;100.00;102233.50;5052385;28;45508;-74
2023/02/16 04:17:24;;;;;;;;;29.75;22.25;;;;;7.80;100.00;102233.44;5046110;28;45441;-76
2023/02/16 04:19:49;;;;;;;;;29.00;20.75;;;;;7.77;100.00;102224.50;5024041;28;62155;-74
2023/02/16 04:22:15;;;;;;;;;26.25;21.75;;;;;7.76;100.00;102226.25;5037073;28;59604;-74
2023/02/16 04:24:40;;;;;;;;;27.25;23.25;;;;;7.73;100.00;102228.75;5038270;28;56164;-74
2023/02/16 04:27:06;;;;;;;;;24.25;24.00;;;;;7.76;100.00;102234.13;5045007;28;52860;-74
2023/02/16 04:29:31;;;;;;;;;25.75;22.25;;;;;7.74;100.00;102233.19;5046527;28;60141;-76
2023/02/16 04:31:56;;;;;;;;;25.75;25.00;;;;;7.73;100.00;102228.75;5048861;28;46401;-74
2023/02/16 04:34:22;;;;;;;;;33.75;19.75;;;;;7.74;100.00;102230.56;5028594;28;49503;-75
2023/02/16 04:36:47;;;;;;;;;29.75;21.25;;;;;7.73;100.00;102226.13;5054372;28;45491;-76
2023/02/16 04:39:12;;;;;;;;;28.00;22.75;;;;;7.73;100.00;102234.00;5047174;28;46228;-75
2023/02/16 04:41:38;;;;;;;;;30.25;24.25;;;;;7.73;100.00;102241.00;5036197;28;45357;-74
2023/02/16 04:44:03;;;;;;;;;28.25;21.25;;;;;7.71;100.00;102222.50;5053708;28;51190;-74
2023/02/16 04:46:29;;;;;;;;;32.25;24.50;;;;;7.75;100.00;102229.72;5046762;28;45636;-76
2023/02/16 04:48:55;;;;;;;;;26.75;24.00;;;;;7.75;100.00;102234.97;5045040;28;46313;-77
2023/02/16 04:51:20;;;;;;;;;29.50;21.50;;;;;7.73;100.00;102219.97;5039329;28;49024;-75
2023/02/16 04:53:45;;;;;;;;;32.50;26.25;;;;;7.76;100.00;102226.25;5029259;28;55559;-75
2023/02/16 04:56:11;;;;;;;;;29.00;24.50;;;;;7.78;100.00;102240.38;5023775;28;45291;-75
2023/02/16 04:58:37;;;;;;;;;32.25;24.50;;;;;7.79;100.00;102236.91;5033864;28;45986;-74
2023/02/16 05:01:03;;;;;;;;;23.00;15.00;;;;;7.80;100.00;102236.06;5031795;28;45413;-75
2023/02/16 05:03:28;;;;;;;;;30.50;24.75;;;;;7.88;100.00;102249.56;5035699;28;45440;-75
2023/02/16 05:05:54;;;;;;;;;26.75;23.00;;;;;7.87;100.00;102251.28;5027499;28;45551;-74
2023/02/16 05:08:19;;;;;;;;;26.00;22.75;;;;;7.93;100.00;102245.41;5046980;28;61475;-77
2023/02/16 05:14:40;;;;;;;;;22.25;17.00;;;;;7.95;100.00;102243.75;5042033;28;53687;-74
2023/02/16 05:16:14;;;;;;;;;38.00;24.25;;;;;8.07;100.00;102239.03;5049270;28;45398;-73
2023/02/16 05:18:39;;;;;;;;;24.25;19.75;;;;;8.10;100.00;102246.16;5044378;28;63211;-74
2023/02/16 05:23:48;;;;;;;;;25.00;23.00;;;;;8.07;100.00;102238.13;5037718;28;45422;-74
2023/02/16 05:26:13;;;;;;;;;28.75;20.00;;;;;8.06;100.00;102238.97;5054020;28;53935;-74
2023/02/16 05:28:39;;;;;;;;;28.25;19.50;;;;;8.09;100.00;102234.72;5043844;28;52001;-74
2023/02/16 05:31:04;;;;;;;;;25.50;24.25;;;;;8.07;100.00;102227.59;5040979;28;55045;-73
2023/02/16 05:33:30;;;;;;;;;24.50;20.75;;;;;8.06;100.00;102225.81;5034101;28;45697;-74
2023/02/16 05:35:55;;;;;;;;;32.50;24.50;;;;;8.07;100.00;102225.88;5049998;28;54873;-77
2023/02/16 05:38:20;;;;;;;;;29.00;20.75;;;;;8.09;100.00;102221.56;5041858;28;64835;-73
2023/02/16 05:40:46;;;;;;;;;29.75;24.50;;;;;8.08;100.00;102230.28;5022170;28;45544;-74
2023/02/16 05:43:12;;;;;;;;;30.75;22.25;;;;;8.12;100.00;102226.06;5042161;28;45508;-74
2023/02/16 05:45:37;;;;;;;;;32.50;24.00;;;;;8.16;100.00;102228.00;5049704;28;45529;-74
2023/02/16 05:48:03;;;;;;;;;28.50;26.00;;;;;8.21;100.00;102225.59;5030192;28;51909;-76
2023/02/16 05:50:28;;;;;;;;;34.00;22.50;;;;;8.23;100.00;102224.81;5046239;28;56576;-75
2023/02/16 05:52:53;;;;;;;;;28.50;21.50;;;;;8.25;100.00;102222.22;5044147;28;45509;-75
2023/02/16 05:55:19;;;;;;;;;31.25;22.25;;;;;8.27;100.00;102220.56;5042273;28;54301;-76
2023/02/16 05:57:44;;;;;;;;;25.25;22.50;;;;;8.29;100.00;102216.28;5066874;28;45505;-75
2023/02/16 06:00:10;;;;;;;;;34.75;25.50;;;;;8.33;100.00;102221.72;5049648;28;45489;-75
2023/02/16 06:02:35;;;;;;;;;19.75;19.75;;;;;8.36;100.00;102221.91;5046968;28;45836;-76
2023/02/16 06:05:01;;;;;;;;;31.50;24.00;;;;;8.39;100.00;102219.38;5042290;28;54847;-77
2023/02/16 06:07:26;;;;;;;;;28.50;22.00;;;;;8.43;100.00;102227.44;5040057;28;59723;-76
2023/02/16 06:09:51;;;;;;;;;28.50;22.75;;;;;8.43;100.00;102225.69;5036259;28;53614;-75
2023/02/16 06:12:17;;;;;;;;;32.75;24.00;;;;;8.47;100.00;102231.97;5051190;28;45343;-75
2023/02/16 06:14:42;;;;;;;;;34.25;27.50;;;;;8.53;100.00;102237.50;5045534;28;53011;-74
2023/02/16 06:17:07;;;;;;;;;38.25;26.75;;;;;8.47;100.00;102226.69;5028371;28;54511;-71
2023/02/16 06:19:33;;;;;;;;;33.50;27.50;;;;;8.39;100.00;102229.91;5041401;28;60206;-70
2023/02/16 06:21:58;;;;;;;;;35.75;23.00;;;;;8.35;100.00;102227.06;5043093;28;45211;-72
2023/02/16 06:24:23;;;;;;;;;24.50;19.75;;;;;8.29;100.00;102238.22;5050034;28;46355;-72
2023/02/16 06:26:49;;;;;;;;;25.50;21.50;;;;;8.22;100.00;102223.00;5050805;28;45698;-72
2023/02/16 06:29:14;;;;;;;;;29.50;24.00;;;;;8.21;100.00;102238.75;5048811;28;45565;-72
2023/02/16 06:31:40;;;;;;;;;34.00;25.50;;;;;8.19;100.00;102241.28;5022140;28;45706;-72
2023/02/16 06:34:05;;;;;;;;;29.50;24.50;;;;;8.18;100.00;102254.38;5050621;28;52620;-72
2023/02/16 06:36:30;;;;;;;;;29.00;24.50;;;;;8.16;100.00;102261.31;5043492;28;46100;-74
2023/02/16 06:38:56;;;;;;;;;30.25;23.25;;;;;8.10;100.00;102270.75;5028480;28;45532;-72
2023/02/16 06:41:30;;;;;;;;;29.50;24.50;;;;;7.97;100.00;102273.63;5049923;28;54398;-75
2023/02/16 06:44:00;;;;;;;;;38.25;31.00;;;;;7.80;100.00;102258.84;5028531;28;45555;-74
2023/02/16 06:46:26;;;;;;;;;30.75;25.00;;;;;7.69;100.00;102276.75;5027143;28;45937;-73
2023/02/16 06:48:52;;;;;;;;;33.25;25.25;;;;;7.63;100.00;102284.38;5037064;28;45542;-76
2023/02/16 06:51:17;;;;;;;;;40.50;31.50;;;;;7.67;100.00;102288.94;5050539;28;45733;-75
2023/02/16 06:53:43;;;;;;;;;34.50;25.25;;;;;7.75;100.00;102292.81;5033629;28;45526;-75
2023/02/16 06:56:08;;;;;;;;;33.50;24.00;;;;;7.85;100.00;102297.66;5024358;28;62878;-75
2023/02/16 06:58:33;;;;;;;;;31.00;23.50;;;;;7.94;100.00;102302.44;5037237;28;57103;-75
2023/02/16 07:00:59;;;;;;;;;30.00;28.50;;;;;8.03;100.00;102299.31;5037164;28;53926;-75
2023/02/16 07:03:24;;;;;;;;;41.75;31.50;;;;;8.11;100.00;102295.31;5034835;28;51448;-74
2023/02/16 07:05:49;;;;;;;;;38.50;30.00;;;;;8.17;100.00;102298.22;5056052;28;59846;-76
2023/02/16 07:08:15;;;;;;;;;41.75;34.00;;;;;8.25;100.00;102294.16;5036960;28;45547;-75
2023/02/16 07:10:45;;;;;;;;;36.50;30.50;;;;;8.34;100.00;102306.84;5035324;28;51540;-76
2023/02/16 07:13:10;;;;;;;;;33.50;26.00;;;;;8.37;100.00;102297.38;5049656;28;45764;-73
2023/02/16 07:15:35;;;;;;;;;32.25;30.50;;;;;8.42;100.00;102288.81;5037407;28;52307;-73
2023/02/16 07:18:01;;;;;;;;;38.25;30.00;;;;;8.49;100.00;102304.91;5050722;28;45570;-76
2023/02/16 07:20:27;;;;;;;;;33.25;28.25;;;;;8.52;100.00;102285.69;5017250;28;45652;-75
2023/02/16 07:22:52;;;;;;;;;29.75;24.75;;;;;8.60;100.00;102300.09;5053435;28;46411;-75
2023/02/16 07:25:17;;;;;;;;;45.00;34.75;;;;;8.65;100.00;102302.09;5026688;28;47086;-74
2023/02/16 07:27:43;;;;;;;;;27.25;23.25;;;;;8.68;100.00;102298.69;5040038;28;48811;-74
2023/02/16 07:30:09;;;;;;;;;41.25;30.50;;;;;8.76;100.00;102304.28;5037816;28;45400;-75
2023/02/16 07:32:35;;;;;;;;;39.75;32.50;;;;;8.81;100.00;102305.38;5057086;28;45328;-74
2023/02/16 07:35:00;;;;;;;;;34.00;28.25;;;;;8.86;100.00;102304.72;5052925;28;45504;-74
2023/02/16 07:37:26;;;;;;;;;32.75;31.50;;;;;8.92;100.00;102312.00;5042535;28;59595;-74
2023/02/16 07:39:52;;;;;;;;;40.50;31.25;;;;;8.96;100.00;102300.75;5044830;28;53306;-75
2023/02/16 07:42:18;;;;;;;;;37.50;27.25;;;;;9.03;100.00;102312.44;5053204;28;45406;-75
2023/02/16 07:44:43;;;;;;;;;38.00;29.50;;;;;9.09;100.00;102297.75;5057103;28;46756;-75
2023/02/16 07:47:08;;;;;;;;;37.75;32.25;;;;;9.17;100.00;102303.38;5045204;28;45546;-75
2023/02/16 07:49:34;;;;;;;;;35.50;31.75;;;;;9.24;100.00;102296.59;5057238;28;50336;-74
2023/02/16 07:51:59;;;;;;;;;34.25;27.75;;;;;9.29;100.00;102301.22;5057592;28;54614;-75
2023/02/16 07:54:24;;;;;;;;;29.25;25.00;;;;;9.34;100.00;102299.66;5054130;28;53052;-74
2023/02/16 07:56:50;;;;;;;;;36.50;29.00;;;;;9.37;100.00;102302.38;5053155;28;45993;-74
2023/02/16 07:59:16;;;;;;;;;38.75;25.50;;;;;9.43;100.00;102312.31;5035606;28;45525;-74
2023/02/16 08:04:16;;;;;;;;;36.00;27.75;;;;;9.53;100.00;102322.34;5030914;22;47307;-75
2023/02/16 08:06:42;;;;;;;;;38.00;28.75;;;;;9.60;100.00;102320.88;5006498;28;45543;-75
2023/02/16 08:09:07;;;;;;;;;31.25;28.75;;;;;9.67;100.00;102328.16;5014664;28;45444;-75
2023/02/16 08:11:32;;;;;;;;;31.75;23.50;;;;;9.71;100.00;102322.19;5014342;28;45520;-74
2023/02/16 08:13:59;;;;;;;;;35.50;27.25;;;;;9.77;100.00;102317.13;5013219;28;46586;-74
2023/02/16 08:16:26;;;;;;;;;34.75;23.75;;;;;9.80;100.00;102332.16;5017194;28;45335;-75
2023/02/16 08:18:55;;;;;;;;;32.50;29.25;;;;;9.83;100.00;102322.63;5005002;28;45620;-75
2023/02/16 08:21:24;;;;;;;;;33.50;26.50;;;;;9.85;100.00;102334.13;5003384;28;45188;-77
2023/02/16 08:24:01;;;;;;;;;27.00;24.00;;;;;9.89;100.00;102316.69;4999099;28;45758;-75
2023/02/16 08:26:32;;;;;;;;;33.75;29.00;;;;;9.93;100.00;102318.63;5017152;28;45302;-74
2023/02/16 08:28:58;;;;;;;;;28.00;25.00;;;;;10.00;100.00;102314.44;4999531;28;45434;-76
2023/02/16 08:31:28;;;;;;;;;31.50;25.75;;;;;10.03;100.00;102314.59;4999410;28;45332;-75
2023/02/16 08:33:54;;;;;;;;;40.50;31.00;;;;;10.10;100.00;102301.66;5016935;28;46941;-75
2023/02/16 08:36:22;;;;;;;;;24.75;24.50;;;;;10.16;100.00;102293.94;5017172;28;45354;-76
2023/02/16 08:38:51;;;;;;;;;29.50;24.75;;;;;10.26;100.00;102284.66;5005277;28;45390;-77
2023/02/16 08:41:18;;;;;;;;;34.50;28.00;;;;;10.32;100.00;102290.16;5008105;28;45627;-74
2023/02/16 08:43:43;;;;;;;;;33.00;23.50;;;;;10.39;100.00;102293.94;5019723;28;46787;-74
2023/02/16 08:46:09;;;;;;;;;32.00;28.75;;;;;10.42;100.00;102294.91;4999946;28;45433;-74
2023/02/16 08:48:35;;;;;;;;;38.00;31.75;;;;;10.44;100.00;102293.25;5020450;28;45476;-75
2023/02/16 08:51:02;;;;;;;;;27.25;23.25;;;;;10.48;100.00;102295.13;4999596;28;45568;-74
2023/02/16 08:53:31;;;;;;;;;36.00;26.75;;;;;10.57;100.00;102289.28;5009869;28;45965;-75
2023/02/16 08:55:58;;;;;;;;;41.75;30.00;;;;;10.66;100.00;102299.28;4998830;28;45479;-74
2023/02/16 08:58:25;;;;;;;;;30.50;21.50;;;;;10.74;100.00;102297.75;5013318;28;45455;-74
2023/02/16 09:00:50;;;;;;;;;29.00;21.00;;;;;10.75;100.00;102296.91;4998770;28;45289;-76
2023/02/16 09:03:17;;;;;;;;;31.50;28.00;;;;;10.79;100.00;102304.09;5005832;28;46581;-74
2023/02/16 09:05:44;;;;;;;;;41.50;32.75;;;;;10.82;100.00;102311.25;4998404;28;45415;-74
2023/02/16 09:08:09;;;;;;;;;26.00;23.50;;;;;10.87;100.00;102315.84;5017049;28;45606;-74
2023/02/16 09:10:35;;;;;;;;;31.25;27.00;;;;;10.90;100.00;102321.22;5009449;28;47534;-74
2023/02/16 09:13:00;;;;;;;;;32.00;26.75;;;;;10.93;100.00;102329.25;5017989;28;60018;-74
2023/02/16 09:15:26;;;;;;;;;31.50;27.75;;;;;10.99;100.00;102324.16;4998889;28;45436;-74
2023/02/16 09:17:51;;;;;;;;;36.75;27.75;;;;;11.00;100.00;102319.78;4994202;28;45655;-75
2023/02/16 09:20:19;;;;;;;;;31.75;26.75;;;;;11.07;100.00;102334.97;5013499;28;46849;-74
2023/02/16 09:22:45;;;;;;;;;36.25;27.25;;;;;11.14;100.00;102330.81;5009673;28;45695;-74
2023/02/16 09:25:11;;;;;;;;;38.50;25.50;;;;;11.17;100.00;102331.78;5002654;28;45484;-75
2023/02/16 09:27:36;;;;;;;;;28.25;26.00;;;;;11.26;100.00;102336.50;5018906;28;45459;-75
2023/02/16 09:30:02;;;;;;;;;35.75;26.75;;;;;11.31;100.00;102332.25;5015034;28;50720;-75
2023/02/16 09:32:29;;;;;;;;;28.00;24.25;;;;;11.40;100.00;102339.56;5004060;28;46639;-75
2023/02/16 09:34:54;;;;;;;;;30.75;23.75;;;;;11.43;100.00;102339.69;5009535;28;45493;-75
2023/02/16 09:37:20;;;;;;;;;31.00;28.75;;;;;11.51;100.00;102332.91;4998076;28;45525;-74
2023/02/16 09:39:46;;;;;;;;;33.75;29.00;;;;;11.53;100.00;102326.78;5007581;28;45460;-74
2023/02/16 09:42:32;;;;;;;;;30.75;28.00;;;;;11.60;100.00;102341.09;5010822;28;46390;-74
2023/02/16 09:45:13;;;;;;;;;25.50;21.25;;;;;11.69;100.00;102343.13;4993608;28;45493;-75
2023/02/16 09:47:46;;;;;;;;;32.00;25.00;;;;;11.79;100.00;102337.28;5014307;28;45524;-75
2023/02/16 09:50:18;;;;;;;;;41.00;31.50;;;;;11.88;100.00;102334.94;4999891;28;45326;-75
2023/02/16 09:52:52;;;;;;;;;33.75;25.50;;;;;11.98;100.00;102341.38;5013187;28;45557;-74
2023/02/16 09:55:19;;;;;;;;;37.75;29.00;;;;;12.04;100.00;102337.19;5012980;28;45377;-74
2023/02/16 09:57:55;;;;;;;;;27.75;27.25;;;;;12.16;100.00;102343.69;4998825;28;45522;-75
2023/02/16 10:00:33;;;;;;;;;36.25;29.50;;;;;12.25;100.00;102349.22;5019708;28;45465;-74
2023/02/16 10:03:17;;;;;;;;;34.00;29.00;;;;;12.32;100.00;102346.81;5015545;28;45839;-76
2023/02/16 10:05:55;;;;;;;;;29.00;27.75;;;;;12.40;100.00;102339.06;5011816;28;45476;-75
2023/02/16 10:08:26;;;;;;;;;41.25;30.25;;;;;12.45;100.00;102345.38;4996418;28;45739;-76
2023/02/16 10:11:36;;;;;;;;;31.00;26.75;;;;;12.52;100.00;102330.56;4999499;28;45430;-75
2023/02/16 10:14:03;;;;;;;;;30.75;23.00;;;;;12.55;100.00;102326.25;5021667;28;45561;-75
2023/02/16 10:16:33;;;;;;;;;33.75;27.75;;;;;12.59;100.00;102327.22;4995446;28;45510;-76
2023/02/16 10:18:59;;;;;;;;;36.25;26.25;;;;;12.63;100.00;102341.47;5012380;28;45285;-75
2023/02/16 10:21:26;;;;;;;;;33.00;26.25;;;;;12.66;100.00;102341.53;4993923;28;49833;-76
2023/02/16 10:24:05;;;;;;;;;33.00;27.00;;;;;12.68;100.00;102335.44;5015680;28;46024;-76
2023/02/16 10:26:38;;;;;;;;;27.75;25.75;;;;;12.76;100.00;102338.25;4997083;28;45450;-76
2023/02/16 10:29:15;;;;;;;;;26.25;23.50;;;;;12.79;100.00;102335.72;4996752;28;45632;-76
2023/02/16 10:32:12;;;;;;;;;30.00;23.25;;;;;12.80;100.00;102334.84;4980605;28;45585;-76
2023/02/16 10:34:48;;;;;;;;;36.50;30.25;;;;;12.83;100.00;102343.75;5014557;28;45886;-75
2023/02/16 10:37:13;;;;;;;;;28.50;25.50;;;;;12.84;100.00;102340.28;5015328;28;45516;-76
2023/02/16 10:39:50;;;;;;;;;30.50;27.00;;;;;12.84;100.00;102345.56;5016123;28;45337;-76
2023/02/16 10:42:42;;;;;;;;;27.50;26.50;;;;;12.86;100.00;102345.59;5014984;28;45376;-76
2023/02/16 10:45:16;;;;;;;;;33.25;29.00;;;;;12.91;100.00;102346.63;4994272;28;47688;-76
2023/02/16 10:47:44;;;;;;;;;29.50;28.00;;;;;12.93;100.00;102344.88;5015023;28;45573;-76
2023/02/16 10:50:22;;;;;;;;;31.00;26.75;;;;;12.93;100.00;102336.03;5005557;28;45425;-75
2023/02/16 10:52:48;;;;;;;;;30.75;24.75;;;;;12.91;100.00;102338.66;5018251;28;45295;-76
2023/02/16 10:55:14;;;;;;;;;29.25;27.00;;;;;12.86;100.00;102340.31;5018241;28;45379;-75
2023/02/16 10:57:40;;;;;;;;;26.00;20.25;;;;;12.86;100.00;102353.56;4997878;28;45413;-75
2023/02/16 11:00:12;;;;;;;;;29.25;24.00;;;;;12.86;100.00;102342.94;4995468;28;54222;-75
2023/02/16 11:02:40;;;;;;;;;28.25;24.00;;;;;12.94;100.00;102351.97;5006397;28;45498;-76
2023/02/16 11:05:37;;;;;;;;;29.25;22.25;;;;;13.07;100.00;102354.09;4979536;28;47246;-77
2023/02/16 11:08:04;;;;;;;;;32.00;24.50;;;;;13.21;100.00;102342.91;5009422;28;45370;-74
2023/02/16 11:10:51;;;;;;;;;22.75;18.00;;;;;13.35;100.00;102338.88;5015236;28;45430;-75
2023/02/16 11:13:28;;;;;;;;;28.00;22.67;;;;;13.50;100.00;102333.94;5019178;28;45557;-73
2023/02/16 11:15:56;;;;;;;;;20.25;20.00;;;;;13.60;100.00;102330.66;5013338;28;45616;-74
2023/02/16 11:18:35;;;;;;;;;24.67;21.00;;;;;13.70;100.00;102326.44;4993761;28;45597;-76
2023/02/16 11:21:01;;;;;;;;;27.75;20.50;;;;;13.79;100.00;102325.72;4999375;28;45408;-77
2023/02/16 11:23:41;;;;;;;;;21.67;17.00;;;;;13.89;100.00;102319.75;4997624;28;45334;-74
2023/02/16 11:26:22;;;;;;;;;24.33;16.67;;;;;14.03;100.00;102320.06;4996560;28;46556;-75
2023/02/16 11:28:49;;;;;;;;;26.67;21.67;;;;;14.14;100.00;102323.81;4999668;28;45419;-75
2023/02/16 11:31:18;;;;;;;;;25.50;21.25;;;;;14.28;100.00;102329.44;5004184;28;45485;-74
2023/02/16 11:33:54;;;;;;;;;29.00;20.50;;;;;14.34;100.00;102313.59;5030526;28;45375;-76
2023/02/16 11:36:31;;;;;;;;;21.67;18.67;;;;;14.33;100.00;102322.44;5016772;28;46100;-75
2023/02/16 11:39:18;;;;;;;;;21.00;17.33;;;;;14.22;100.00;102308.94;5010514;28;45379;-75
2023/02/16 11:42:07;;;;;;;;;27.50;19.75;;;;;14.14;100.00;102311.44;4991436;28;45329;-75
2023/02/16 11:44:43;;;;;;;;;28.00;22.00;;;;;14.10;100.00;102314.88;5001488;28;45397;-75
2023/02/16 11:47:30;;;;;;;;;19.67;18.00;;;;;14.10;100.00;102317.53;4995936;28;46264;-75
2023/02/16 11:50:24;;;;;;;;;17.00;16.00;;;;;14.09;100.00;102305.13;4995501;28;46379;-76
2023/02/16 11:52:56;;;;;;;;;22.67;18.67;;;;;14.10;100.00;102296.28;4997225;28;45492;-77
2023/02/16 11:55:31;;;;;;;;;22.00;18.00;;;;;14.14;100.00;102299.91;4995813;28;45636;-76
2023/02/16 11:58:16;;;;;;;;;20.33;17.67;;;;;14.15;100.00;102294.63;4978663;28;48368;-77
2023/02/16 12:01:15;;;;;;;;;20.33;18.00;;;;;14.12;100.00;102289.28;4998767;28;45307;-77